sensor_id;sensor_type;location;lat;lon;timestamp;pressure;altitude;pressure_sealevel;temperature;humidity
15998;BME280;8103;51.340;12.326;2023-01-27T00:00:54;100803.16;;;2.30;85.50
15998;BME280;8103;51.340;12.326;2023-01-27T00:03:21;100803.16;;;2.30;86.02
15998;BME280;8103;51.340;12.326;2023-01-27T00:05:49;100796.84;;;2.31;85.50
15998;BME280;8103;51.340;12.326;2023-01-27T00:08:17;100788.19;;;2.37;85.83
15998;BME280;8103;51.340;12.326;2023-01-27T00:10:44;100785.53;;;2.37;85.95
15998;BME280;8103;51.340;12.326;2023-01-27T00:13:13;100784.44;;;2.31;85.58
15998;BME280;8103;51.340;12.326;2023-01-27T00:15:57;100782.00;;;2.30;85.61
15998;BME280;8103;51.340;12.326;2023-01-27T00:18:24;100777.91;;;2.27;85.58
15998;BME280;8103;51.340;12.326;2023-01-27T00:20:51;100780.09;;;2.23;86.34
15998;BME280;8103;51.340;12.326;2023-01-27T00:23:37;100787.19;;;2.23;86.46
15998;BME280;8103;51.340;12.326;2023-01-27T00:26:22;100782.72;;;2.23;86.35
15998;BME280;8103;51.340;12.326;2023-01-27T00:28:49;100773.16;;;2.22;87.01
15998;BME280;8103;51.340;12.326;2023-01-27T00:31:17;100774.59;;;2.25;86.72
15998;BME280;8103;51.340;12.326;2023-01-27T00:34:03;100779.06;;;2.24;87.59
15998;BME280;8103;51.340;12.326;2023-01-27T00:36:39;100772.16;;;2.23;86.68
15998;BME280;8103;51.340;12.326;2023-01-27T00:39:08;100769.97;;;2.27;87.23
15998;BME280;8103;51.340;12.326;2023-01-27T00:41:36;100772.25;;;2.30;87.01
15998;BME280;8103;51.340;12.326;2023-01-27T00:44:03;100772.69;;;2.34;87.08
15998;BME280;8103;51.340;12.326;2023-01-27T00:46:38;100773.50;;;2.34;87.09
15998;BME280;8103;51.340;12.326;2023-01-27T00:49:05;100775.31;;;2.34;87.26
15998;BME280;8103;51.340;12.326;2023-01-27T00:51:32;100775.50;;;2.32;87.30
15998;BME280;8103;51.340;12.326;2023-01-27T00:53:59;100772.25;;;2.30;87.12
15998;BME280;8103;51.340;12.326;2023-01-27T00:56:28;100768.41;;;2.33;87.24
15998;BME280;8103;51.340;12.326;2023-01-27T00:58:55;100775.06;;;2.29;87.83
15998;BME280;8103;51.340;12.326;2023-01-27T01:01:22;100779.34;;;2.30;87.55
15998;BME280;8103;51.340;12.326;2023-01-27T01:03:49;100774.06;;;2.30;87.92
15998;BME280;8103;51.340;12.326;2023-01-27T01:06:18;100777.06;;;2.27;87.45
15998;BME280;8103;51.340;12.326;2023-01-27T01:08:45;100783.00;;;2.29;88.19
15998;BME280;8103;51.340;12.326;2023-01-27T01:11:15;100781.44;;;2.34;88.79
15998;BME280;8103;51.340;12.326;2023-01-27T01:13:43;100782.28;;;2.35;88.44
15998;BME280;8103;51.340;12.326;2023-01-27T01:16:18;100780.91;;;2.39;88.38
15998;BME280;8103;51.340;12.326;2023-01-27T01:18:45;100774.34;;;2.35;88.29
15998;BME280;8103;51.340;12.326;2023-01-27T01:21:13;100786.91;;;2.33;88.62
15998;BME280;8103;51.340;12.326;2023-01-27T01:23:43;100779.22;;;2.38;88.39
15998;BME280;8103;51.340;12.326;2023-01-27T01:26:13;100777.22;;;2.40;88.31
15998;BME280;8103;51.340;12.326;2023-01-27T01:28:40;100781.25;;;2.36;87.92
15998;BME280;8103;51.340;12.326;2023-01-27T01:31:11;100787.38;;;2.36;88.15
15998;BME280;8103;51.340;12.326;2023-01-27T01:33:38;100787.38;;;2.36;87.67
15998;BME280;8103;51.340;12.326;2023-01-27T01:36:12;100795.50;;;2.35;87.61
15998;BME280;8103;51.340;12.326;2023-01-27T01:38:40;100784.09;;;2.34;88.36
15998;BME280;8103;51.340;12.326;2023-01-27T01:41:15;100787.75;;;2.33;88.19
15998;BME280;8103;51.340;12.326;2023-01-27T01:43:42;100787.56;;;2.35;87.82
15998;BME280;8103;51.340;12.326;2023-01-27T01:46:11;100790.63;;;2.38;87.62
15998;BME280;8103;51.340;12.326;2023-01-27T01:49:00;100787.81;;;2.40;87.25
15998;BME280;8103;51.340;12.326;2023-01-27T01:51:53;100797.75;;;2.38;87.12
15998;BME280;8103;51.340;12.326;2023-01-27T01:54:29;100791.75;;;2.29;86.96
15998;BME280;8103;51.340;12.326;2023-01-27T01:57:08;100792.28;;;2.24;87.67
15998;BME280;8103;51.340;12.326;2023-01-27T01:59:49;100791.66;;;2.22;87.74
15998;BME280;8103;51.340;12.326;2023-01-27T02:02:22;100787.66;;;2.27;87.83
15998;BME280;8103;51.340;12.326;2023-01-27T02:05:05;100795.41;;;2.28;87.17
15998;BME280;8103;51.340;12.326;2023-01-27T02:08:02;100791.31;;;2.26;87.02
15998;BME280;8103;51.340;12.326;2023-01-27T02:10:33;100787.38;;;2.21;86.65
15998;BME280;8103;51.340;12.326;2023-01-27T02:13:00;100791.31;;;2.26;86.56
15998;BME280;8103;51.340;12.326;2023-01-27T02:15:29;100792.56;;;2.30;86.51
15998;BME280;8103;51.340;12.326;2023-01-27T02:17:58;100788.13;;;2.30;86.51
15998;BME280;8103;51.340;12.326;2023-01-27T02:20:38;100782.88;;;2.37;86.27
15998;BME280;8103;51.340;12.326;2023-01-27T02:28:42;100776.34;;;2.18;86.25
15998;BME280;8103;51.340;12.326;2023-01-27T02:31:09;100775.16;;;2.20;85.92
15998;BME280;8103;51.340;12.326;2023-01-27T02:33:36;100780.25;;;2.22;86.44
15998;BME280;8103;51.340;12.326;2023-01-27T02:36:09;100777.81;;;2.20;87.06
15998;BME280;8103;51.340;12.326;2023-01-27T02:38:50;100782.44;;;2.18;86.53
15998;BME280;8103;51.340;12.326;2023-01-27T02:41:41;100774.72;;;2.17;87.58
15998;BME280;8103;51.340;12.326;2023-01-27T02:44:09;100783.47;;;2.17;88.17
15998;BME280;8103;51.340;12.326;2023-01-27T02:46:36;100774.91;;;2.15;87.63
15998;BME280;8103;51.340;12.326;2023-01-27T02:49:04;100782.19;;;2.13;87.85
15998;BME280;8103;51.340;12.326;2023-01-27T02:51:31;100787.84;;;2.10;88.07
15998;BME280;8103;51.340;12.326;2023-01-27T02:53:58;100802.06;;;2.09;87.98
15998;BME280;8103;51.340;12.326;2023-01-27T02:56:25;100796.78;;;2.09;87.88
15998;BME280;8103;51.340;12.326;2023-01-27T02:58:52;100814.75;;;2.14;87.61
15998;BME280;8103;51.340;12.326;2023-01-27T03:01:19;100817.22;;;2.15;88.07
15998;BME280;8103;51.340;12.326;2023-01-27T03:03:46;100825.75;;;2.17;87.88
15998;BME280;8103;51.340;12.326;2023-01-27T03:06:13;100829.69;;;2.21;87.34
15998;BME280;8103;51.340;12.326;2023-01-27T03:08:40;100827.88;;;2.22;87.29
15998;BME280;8103;51.340;12.326;2023-01-27T03:11:08;100819.75;;;2.23;86.83
15998;BME280;8103;51.340;12.326;2023-01-27T03:13:36;100831.88;;;2.18;86.25
15998;BME280;8103;51.340;12.326;2023-01-27T03:16:04;100844.03;;;2.12;85.96
15998;BME280;8103;51.340;12.326;2023-01-27T03:18:51;100840.72;;;2.10;86.02
15998;BME280;8103;51.340;12.326;2023-01-27T03:21:19;100835.78;;;2.07;86.62
15998;BME280;8103;51.340;12.326;2023-01-27T03:23:46;100839.09;;;2.09;86.15
15998;BME280;8103;51.340;12.326;2023-01-27T03:26:14;100835.44;;;2.10;86.38
15998;BME280;8103;51.340;12.326;2023-01-27T03:28:42;100840.53;;;2.12;85.62
15998;BME280;8103;51.340;12.326;2023-01-27T03:31:11;100843.06;;;2.05;86.48
15998;BME280;8103;51.340;12.326;2023-01-27T03:33:46;100838.44;;;2.07;85.85
15998;BME280;8103;51.340;12.326;2023-01-27T03:36:13;100841.44;;;2.04;85.53
15998;BME280;8103;51.340;12.326;2023-01-27T03:38:58;100849.66;;;2.09;85.68
15998;BME280;8103;51.340;12.326;2023-01-27T03:41:44;100847.81;;;2.10;85.14
15998;BME280;8103;51.340;12.326;2023-01-27T03:44:29;100854.84;;;2.03;85.07
15998;BME280;8103;51.340;12.326;2023-01-27T03:47:15;100844.09;;;2.04;85.44
15998;BME280;8103;51.340;12.326;2023-01-27T03:49:41;100848.72;;;2.02;86.13
15998;BME280;8103;51.340;12.326;2023-01-27T03:52:08;100847.09;;;2.01;86.12
15998;BME280;8103;51.340;12.326;2023-01-27T03:54:35;100848.72;;;2.02;86.46
15998;BME280;8103;51.340;12.326;2023-01-27T03:57:01;100845.09;;;2.03;86.42
15998;BME280;8103;51.340;12.326;2023-01-27T03:59:31;100850.03;;;2.06;86.57
15998;BME280;8103;51.340;12.326;2023-01-27T04:02:00;100850.28;;;2.11;86.23
15998;BME280;8103;51.340;12.326;2023-01-27T04:04:46;100841.38;;;2.12;86.34
15998;BME280;8103;51.340;12.326;2023-01-27T04:07:36;100851.94;;;2.12;86.17
15998;BME280;8103;51.340;12.326;2023-01-27T04:10:04;100852.56;;;2.14;86.65
15998;BME280;8103;51.340;12.326;2023-01-27T04:12:32;100848.94;;;2.15;85.76
15998;BME280;8103;51.340;12.326;2023-01-27T04:14:58;100857.06;;;2.14;86.44
15998;BME280;8103;51.340;12.326;2023-01-27T04:17:26;100854.22;;;2.15;86.54
15998;BME280;8103;51.340;12.326;2023-01-27T04:19:53;100854.22;;;2.15;86.71
15998;BME280;8103;51.340;12.326;2023-01-27T04:22:19;100851.84;;;2.20;86.36
15998;BME280;8103;51.340;12.326;2023-01-27T04:24:46;100851.59;;;2.15;86.25
15998;BME280;8103;51.340;12.326;2023-01-27T04:27:14;100859.88;;;2.12;87.39
15998;BME280;8103;51.340;12.326;2023-01-27T04:29:41;100853.94;;;2.10;87.30
15998;BME280;8103;51.340;12.326;2023-01-27T04:32:11;100852.31;;;2.09;87.08
15998;BME280;8103;51.340;12.326;2023-01-27T04:34:39;100847.75;;;2.03;87.93
15998;BME280;8103;51.340;12.326;2023-01-27T04:37:07;100854.00;;;2.02;88.00
15998;BME280;8103;51.340;12.326;2023-01-27T04:39:35;100856.28;;;2.05;88.54
15998;BME280;8103;51.340;12.326;2023-01-27T04:42:05;100857.13;;;2.06;88.33
15998;BME280;8103;51.340;12.326;2023-01-27T04:44:32;100863.88;;;2.08;88.63
15998;BME280;8103;51.340;12.326;2023-01-27T04:46:58;100861.03;;;2.10;89.23
15998;BME280;8103;51.340;12.326;2023-01-27T04:49:25;100863.50;;;2.11;88.92
15998;BME280;8103;51.340;12.326;2023-01-27T04:51:53;100875.75;;;2.12;88.61
15998;BME280;8103;51.340;12.326;2023-01-27T04:54:21;100872.09;;;2.13;89.06
15998;BME280;8103;51.340;12.326;2023-01-27T04:56:58;100869.28;;;2.15;89.37
15998;BME280;8103;51.340;12.326;2023-01-27T04:59:25;100873.38;;;2.17;89.44
15998;BME280;8103;51.340;12.326;2023-01-27T05:01:52;100877.63;;;2.18;89.69
15998;BME280;8103;51.340;12.326;2023-01-27T05:04:20;100873.66;;;2.22;89.53
15998;BME280;8103;51.340;12.326;2023-01-27T05:06:47;100865.72;;;2.22;88.98
15998;BME280;8103;51.340;12.326;2023-01-27T05:09:13;100869.16;;;2.23;89.33
15998;BME280;8103;51.340;12.326;2023-01-27T05:11:40;100872.00;;;2.21;89.15
15998;BME280;8103;51.340;12.326;2023-01-27T05:14:07;100873.84;;;2.21;89.22
15998;BME280;8103;51.340;12.326;2023-01-27T05:16:34;100873.47;;;2.24;89.96
15998;BME280;8103;51.340;12.326;2023-01-27T05:19:01;100880.88;;;2.29;89.14
15998;BME280;8103;51.340;12.326;2023-01-27T05:21:28;100882.88;;;2.27;89.09
15998;BME280;8103;51.340;12.326;2023-01-27T05:23:56;100877.56;;;2.27;89.56
15998;BME280;8103;51.340;12.326;2023-01-27T05:26:26;100879.22;;;2.28;88.77
15998;BME280;8103;51.340;12.326;2023-01-27T05:28:56;100881.84;;;2.28;89.17
15998;BME280;8103;51.340;12.326;2023-01-27T05:31:29;100883.88;;;2.26;88.65
15998;BME280;8103;51.340;12.326;2023-01-27T05:34:01;100886.53;;;2.26;88.74
15998;BME280;8103;51.340;12.326;2023-01-27T05:36:30;100883.41;;;2.22;89.69
15998;BME280;8103;51.340;12.326;2023-01-27T05:38:58;100883.22;;;2.23;89.19
15998;BME280;8103;51.340;12.326;2023-01-27T05:41:28;100886.22;;;2.20;89.64
15998;BME280;8103;51.340;12.326;2023-01-27T05:43:59;100882.31;;;2.16;90.23
15998;BME280;8103;51.340;12.326;2023-01-27T05:46:29;100880.69;;;2.15;89.94
15998;BME280;8103;51.340;12.326;2023-01-27T05:49:00;100885.56;;;2.18;90.64
15998;BME280;8103;51.340;12.326;2023-01-27T05:51:31;100891.25;;;2.15;90.47
15998;BME280;8103;51.340;12.326;2023-01-27T05:53:58;100888.97;;;2.12;90.95
15998;BME280;8103;51.340;12.326;2023-01-27T05:56:26;100891.63;;;2.12;91.69
15998;BME280;8103;51.340;12.326;2023-01-27T05:58:56;100889.94;;;2.11;91.29
15998;BME280;8103;51.340;12.326;2023-01-27T06:01:29;100887.31;;;2.11;91.59
15998;BME280;8103;51.340;12.326;2023-01-27T06:04:00;100891.97;;;2.09;91.64
15998;BME280;8103;51.340;12.326;2023-01-27T06:06:29;100900.53;;;2.11;92.25
15998;BME280;8103;51.340;12.326;2023-01-27T06:08:57;100894.88;;;2.14;92.09
15998;BME280;8103;51.340;12.326;2023-01-27T06:11:24;100895.53;;;2.16;92.36
15998;BME280;8103;51.340;12.326;2023-01-27T06:13:52;100899.44;;;2.20;92.32
15998;BME280;8103;51.340;12.326;2023-01-27T06:16:21;100902.38;;;2.26;92.22
15998;BME280;8103;51.340;12.326;2023-01-27T06:18:48;100905.28;;;2.31;91.97
15998;BME280;8103;51.340;12.326;2023-01-27T06:21:16;100904.13;;;2.33;91.76
15998;BME280;8103;51.340;12.326;2023-01-27T06:23:43;100911.88;;;2.35;91.41
15998;BME280;8103;51.340;12.326;2023-01-27T06:26:14;100911.88;;;2.35;91.80
15998;BME280;8103;51.340;12.326;2023-01-27T06:28:44;100917.19;;;2.35;91.24
15998;BME280;8103;51.340;12.326;2023-01-27T06:31:20;100915.16;;;2.37;90.94
15998;BME280;8103;51.340;12.326;2023-01-27T06:33:49;100922.06;;;2.38;90.39
15998;BME280;8103;51.340;12.326;2023-01-27T06:36:20;100918.44;;;2.39;90.66
15998;BME280;8103;51.340;12.326;2023-01-27T06:38:50;100910.88;;;2.36;90.03
15998;BME280;8103;51.340;12.326;2023-01-27T06:41:17;100920.81;;;2.34;90.84
15998;BME280;8103;51.340;12.326;2023-01-27T06:43:44;100911.72;;;2.36;90.32
15998;BME280;8103;51.340;12.326;2023-01-27T06:46:11;100913.16;;;2.39;90.26
15998;BME280;8103;51.340;12.326;2023-01-27T06:48:41;100920.09;;;2.40;90.46
15998;BME280;8103;51.340;12.326;2023-01-27T06:51:08;100919.06;;;2.41;90.29
15998;BME280;8103;51.340;12.326;2023-01-27T06:53:35;100911.13;;;2.41;89.85
15998;BME280;8103;51.340;12.326;2023-01-27T06:56:04;100920.72;;;2.42;89.80
15998;BME280;8103;51.340;12.326;2023-01-27T06:58:34;100920.56;;;2.43;89.88
15998;BME280;8103;51.340;12.326;2023-01-27T07:01:04;100924.66;;;2.46;89.63
15998;BME280;8103;51.340;12.326;2023-01-27T07:03:32;100925.47;;;2.46;89.56
15998;BME280;8103;51.340;12.326;2023-01-27T07:05:59;100921.81;;;2.47;89.41
15998;BME280;8103;51.340;12.326;2023-01-27T07:12:26;100931.56;;;2.47;88.88
15998;BME280;8103;51.340;12.326;2023-01-27T07:14:52;100931.94;;;2.44;88.69
15998;BME280;8103;51.340;12.326;2023-01-27T07:21:26;100932.50;;;2.54;88.95
15998;BME280;8103;51.340;12.326;2023-01-27T07:23:52;100933.97;;;2.56;88.70
15998;BME280;8103;51.340;12.326;2023-01-27T07:26:19;100940.72;;;2.59;88.63
15998;BME280;8103;51.340;12.326;2023-01-27T07:28:52;100947.19;;;2.56;88.70
15998;BME280;8103;51.340;12.326;2023-01-27T07:31:20;100942.75;;;2.57;88.30
15998;BME280;8103;51.340;12.326;2023-01-27T07:33:48;100950.28;;;2.60;88.49
15998;BME280;8103;51.340;12.326;2023-01-27T07:36:15;100950.94;;;2.62;88.40
15998;BME280;8103;51.340;12.326;2023-01-27T07:38:42;100954.22;;;2.64;88.74
15998;BME280;8103;51.340;12.326;2023-01-27T07:41:09;100959.16;;;2.67;88.70
15998;BME280;8103;51.340;12.326;2023-01-27T07:43:36;100958.44;;;2.73;88.60
15998;BME280;8103;51.340;12.326;2023-01-27T07:46:03;100957.84;;;2.77;88.40
15998;BME280;8103;51.340;12.326;2023-01-27T07:48:31;100965.63;;;2.79;88.60
15998;BME280;8103;51.340;12.326;2023-01-27T07:50:57;100960.97;;;2.81;88.09
15998;BME280;8103;51.340;12.326;2023-01-27T07:53:24;100961.63;;;2.83;87.90
15998;BME280;8103;51.340;12.326;2023-01-27T07:55:51;100967.19;;;2.88;88.81
15998;BME280;8103;51.340;12.326;2023-01-27T07:58:19;100973.13;;;2.90;88.45
15998;BME280;8103;51.340;12.326;2023-01-27T08:00:45;100974.75;;;2.91;88.73
15998;BME280;8103;51.340;12.326;2023-01-27T08:03:23;100980.69;;;2.93;88.17
15998;BME280;8103;51.340;12.326;2023-01-27T08:05:50;100979.69;;;2.94;88.43
15998;BME280;8103;51.340;12.326;2023-01-27T08:08:17;100980.34;;;2.96;87.96
15998;BME280;8103;51.340;12.326;2023-01-27T08:10:44;100975.84;;;2.96;88.98
15998;BME280;8103;51.340;12.326;2023-01-27T08:13:14;100978.31;;;2.98;87.94
15998;BME280;8103;51.340;12.326;2023-01-27T08:15:42;100980.94;;;2.98;88.57
15998;BME280;8103;51.340;12.326;2023-01-27T08:18:10;100984.25;;;3.00;88.76
15998;BME280;8103;51.340;12.326;2023-01-27T08:24:43;100990.19;;;3.02;88.92
15998;BME280;8103;51.340;12.326;2023-01-27T08:27:11;100980.59;;;3.01;88.83
15998;BME280;8103;51.340;12.326;2023-01-27T08:29:38;100982.88;;;3.04;90.06
15998;BME280;8103;51.340;12.326;2023-01-27T08:32:05;100982.13;;;3.10;89.52
15998;BME280;8103;51.340;12.326;2023-01-27T08:34:32;100983.03;;;3.17;89.46
15998;BME280;8103;51.340;12.326;2023-01-27T08:36:59;100981.69;;;3.21;89.69
15998;BME280;8103;51.340;12.326;2023-01-27T08:39:27;100987.88;;;3.28;89.56
15998;BME280;8103;51.340;12.326;2023-01-27T08:41:54;100986.50;;;3.32;89.40
15998;BME280;8103;51.340;12.326;2023-01-27T08:44:21;100990.03;;;3.39;89.81
15998;BME280;8103;51.340;12.326;2023-01-27T08:46:49;100994.69;;;3.51;90.35
15998;BME280;8103;51.340;12.326;2023-01-27T08:49:16;100996.59;;;3.57;89.75
15998;BME280;8103;51.340;12.326;2023-01-27T08:51:43;100992.38;;;3.63;89.77
15998;BME280;8103;51.340;12.326;2023-01-27T08:54:12;100996.28;;;3.67;90.10
15998;BME280;8103;51.340;12.326;2023-01-27T08:56:39;101009.34;;;3.68;89.36
15998;BME280;8103;51.340;12.326;2023-01-27T08:59:05;101002.03;;;3.70;89.77
15998;BME280;8103;51.340;12.326;2023-01-27T09:01:32;101004.56;;;3.78;89.96
15998;BME280;8103;51.340;12.326;2023-01-27T09:07:59;101006.00;;;4.02;89.73
15998;BME280;8103;51.340;12.326;2023-01-27T09:10:26;101001.16;;;4.05;89.45
15998;BME280;8103;51.340;12.326;2023-01-27T09:12:53;101006.47;;;4.05;89.72
15998;BME280;8103;51.340;12.326;2023-01-27T09:15:20;101008.56;;;4.10;90.13
15998;BME280;8103;51.340;12.326;2023-01-27T09:17:46;100998.88;;;4.23;89.67
15998;BME280;8103;51.340;12.326;2023-01-27T09:20:14;101001.47;;;4.38;89.74
15998;BME280;8103;51.340;12.326;2023-01-27T09:22:41;100994.16;;;4.47;88.65
15998;BME280;8103;51.340;12.326;2023-01-27T09:25:13;101001.56;;;4.51;89.33
15998;BME280;8103;51.340;12.326;2023-01-27T09:27:41;100997.13;;;4.58;88.99
15998;BME280;8103;51.340;12.326;2023-01-27T09:30:11;101009.63;;;4.64;88.97
15998;BME280;8103;51.340;12.326;2023-01-27T09:32:40;101013.91;;;4.65;89.18
15998;BME280;8103;51.340;12.326;2023-01-27T09:35:07;101017.59;;;4.64;88.39
15998;BME280;8103;51.340;12.326;2023-01-27T09:37:46;101014.28;;;4.62;87.89
15998;BME280;8103;51.340;12.326;2023-01-27T09:40:45;101007.72;;;4.58;87.69
15998;BME280;8103;51.340;12.326;2023-01-27T09:43:52;101010.63;;;4.63;88.00
15998;BME280;8103;51.340;12.326;2023-01-27T09:47:03;101006.97;;;4.64;87.77
15998;BME280;8103;51.340;12.326;2023-01-27T09:50:11;101013.53;;;4.68;87.28
15998;BME280;8103;51.340;12.326;2023-01-27T09:56:00;101018.06;;;4.74;86.13
15998;BME280;8103;51.340;12.326;2023-01-27T09:59:08;101020.09;;;4.72;85.96
15998;BME280;8103;51.340;12.326;2023-01-27T10:02:09;101021.47;;;4.68;86.27
15998;BME280;8103;51.340;12.326;2023-01-27T10:09:14;101014.66;;;4.59;85.95
15998;BME280;8103;51.340;12.326;2023-01-27T10:23:39;101019.97;;;4.59;87.39
15998;BME280;8103;51.340;12.326;2023-01-27T10:26:34;101030.66;;;4.66;87.06
15998;BME280;8103;51.340;12.326;2023-01-27T10:29:17;101026.19;;;4.66;86.78
15998;BME280;8103;51.340;12.326;2023-01-27T10:34:35;101024.50;;;4.59;87.28
15998;BME280;8103;51.340;12.326;2023-01-27T10:37:23;101029.16;;;4.57;87.39
15998;BME280;8103;51.340;12.326;2023-01-27T10:43:15;101024.88;;;4.56;86.62
15998;BME280;8103;51.340;12.326;2023-01-27T10:46:21;101027.81;;;4.67;86.87
15998;BME280;8103;51.340;12.326;2023-01-27T10:49:09;101022.03;;;4.57;86.66
15998;BME280;8103;51.340;12.326;2023-01-27T10:51:54;101024.81;;;4.49;87.29
15998;BME280;8103;51.340;12.326;2023-01-27T10:54:30;101020.91;;;4.45;86.94
15998;BME280;8103;51.340;12.326;2023-01-27T10:57:13;101018.31;;;4.52;87.31
15998;BME280;8103;51.340;12.326;2023-01-27T11:00:12;101021.97;;;4.51;87.05
15998;BME280;8103;51.340;12.326;2023-01-27T11:03:21;101024.44;;;4.52;87.29
15998;BME280;8103;51.340;12.326;2023-01-27T11:05:56;101009.75;;;4.56;86.88
15998;BME280;8103;51.340;12.326;2023-01-27T11:08:38;101010.59;;;4.57;87.07
15998;BME280;8103;51.340;12.326;2023-01-27T11:11:08;101019.13;;;4.52;87.35
15998;BME280;8103;51.340;12.326;2023-01-27T11:14:22;101015.31;;;4.61;87.43
15998;BME280;8103;51.340;12.326;2023-01-27T11:20:42;101004.94;;;4.66;87.90
15998;BME280;8103;51.340;12.326;2023-01-27T11:23:20;101002.13;;;4.74;87.91
15998;BME280;8103;51.340;12.326;2023-01-27T11:35:12;101002.59;;;4.84;86.99
15998;BME280;8103;51.340;12.326;2023-01-27T11:37:50;100995.25;;;4.86;87.67
15998;BME280;8103;51.340;12.326;2023-01-27T11:40:32;100987.09;;;4.88;87.47
15998;BME280;8103;51.340;12.326;2023-01-27T11:43:00;100993.63;;;4.85;87.90
15998;BME280;8103;51.340;12.326;2023-01-27T11:45:34;100986.91;;;4.89;86.81
15998;BME280;8103;51.340;12.326;2023-01-27T11:48:06;100997.13;;;4.92;86.99
15998;BME280;8103;51.340;12.326;2023-01-27T11:50:35;100993.25;;;4.95;87.03
15998;BME280;8103;51.340;12.326;2023-01-27T11:53:34;100996.16;;;5.00;87.53
15998;BME280;8103;51.340;12.326;2023-01-27T11:56:16;100991.31;;;5.10;87.39
15998;BME280;8103;51.340;12.326;2023-01-27T11:59:04;100989.09;;;5.13;86.97
15998;BME280;8103;51.340;12.326;2023-01-27T12:01:55;100990.94;;;5.19;87.05
15998;BME280;8103;51.340;12.326;2023-01-27T12:04:54;100990.53;;;5.22;86.64
15998;BME280;8103;51.340;12.326;2023-01-27T12:13:23;100997.44;;;5.10;87.14
15998;BME280;8103;51.340;12.326;2023-01-27T12:15:54;100985.59;;;5.13;87.85
15998;BME280;8103;51.340;12.326;2023-01-27T12:18:22;100992.13;;;5.10;88.01
15998;BME280;8103;51.340;12.326;2023-01-27T12:21:18;100986.44;;;5.13;87.61
15998;BME280;8103;51.340;12.326;2023-01-27T12:27:52;100978.22;;;5.15;88.51
15998;BME280;8103;51.340;12.326;2023-01-27T12:34:51;100971.16;;;5.28;87.97
15998;BME280;8103;51.340;12.326;2023-01-27T12:37:31;100968.47;;;5.28;88.11
15998;BME280;8103;51.340;12.326;2023-01-27T12:40:05;100968.47;;;5.22;88.16
15998;BME280;8103;51.340;12.326;2023-01-27T12:49:32;100969.72;;;5.26;89.29
15998;BME280;8103;51.340;12.326;2023-01-27T12:52:14;100967.50;;;5.29;89.41
15998;BME280;8103;51.340;12.326;2023-01-27T12:58:59;100972.75;;;5.23;88.74
15998;BME280;8103;51.340;12.326;2023-01-27T13:01:29;100971.09;;;5.15;89.15
15998;BME280;8103;51.340;12.326;2023-01-27T13:04:04;100973.94;;;5.07;89.45
15998;BME280;8103;51.340;12.326;2023-01-27T13:06:40;100971.88;;;5.09;89.37
15998;BME280;8103;51.340;12.326;2023-01-27T13:09:35;100968.63;;;5.14;89.49
15998;BME280;8103;51.340;12.326;2023-01-27T13:12:15;100968.63;;;5.14;89.41
15998;BME280;8103;51.340;12.326;2023-01-27T13:14:53;100975.81;;;5.13;89.38
15998;BME280;8103;51.340;12.326;2023-01-27T13:17:38;100977.81;;;5.11;89.35
15998;BME280;8103;51.340;12.326;2023-01-27T13:20:19;100970.50;;;5.13;89.46
15998;BME280;8103;51.340;12.326;2023-01-27T13:23:16;100962.72;;;5.18;88.73
15998;BME280;8103;51.340;12.326;2023-01-27T13:28:55;100962.22;;;5.42;88.71
15998;BME280;8103;51.340;12.326;2023-01-27T13:32:04;100966.94;;;5.47;88.44
15998;BME280;8103;51.340;12.326;2023-01-27T13:35:12;100971.03;;;5.49;88.17
15998;BME280;8103;51.340;12.326;2023-01-27T13:38:00;100968.56;;;5.48;87.66
15998;BME280;8103;51.340;12.326;2023-01-27T13:40:46;100978.38;;;5.47;87.79
15998;BME280;8103;51.340;12.326;2023-01-27T13:43:19;100978.38;;;5.47;88.29
15998;BME280;8103;51.340;12.326;2023-01-27T13:46:14;100984.47;;;5.41;88.09
15998;BME280;8103;51.340;12.326;2023-01-27T13:49:02;100982.84;;;5.40;87.74
15998;BME280;8103;51.340;12.326;2023-01-27T13:51:33;100983.25;;;5.31;87.50
15998;BME280;8103;51.340;12.326;2023-01-27T13:54:04;100989.09;;;5.20;87.39
15998;BME280;8103;51.340;12.326;2023-01-27T13:56:53;100988.47;;;5.11;87.49
15998;BME280;8103;51.340;12.326;2023-01-27T13:59:59;100997.00;;;5.07;88.02
15998;BME280;8103;51.340;12.326;2023-01-27T14:02:53;100992.91;;;5.04;88.43
15998;BME280;8103;51.340;12.326;2023-01-27T14:05:42;101002.78;;;5.10;87.99
15998;BME280;8103;51.340;12.326;2023-01-27T14:11:34;100996.19;;;5.06;88.16
15998;BME280;8103;51.340;12.326;2023-01-27T14:14:20;101004.78;;;5.08;87.38
15998;BME280;8103;51.340;12.326;2023-01-27T14:17:15;101003.75;;;5.09;87.52
15998;BME280;8103;51.340;12.326;2023-01-27T14:20:28;101008.09;;;5.10;87.47
15998;BME280;8103;51.340;12.326;2023-01-27T14:23:33;101007.88;;;5.12;88.24
15998;BME280;8103;51.340;12.326;2023-01-27T14:26:27;101012.19;;;5.19;87.63
15998;BME280;8103;51.340;12.326;2023-01-27T14:32:19;101011.66;;;5.30;87.37
15998;BME280;8103;51.340;12.326;2023-01-27T14:35:08;101010.63;;;5.31;88.34
15998;BME280;8103;51.340;12.326;2023-01-27T14:37:57;101014.50;;;5.35;88.08
15998;BME280;8103;51.340;12.326;2023-01-27T14:40:38;101018.19;;;5.34;87.44
15998;BME280;8103;51.340;12.326;2023-01-27T14:43:32;101014.31;;;5.30;88.05
15998;BME280;8103;51.340;12.326;2023-01-27T14:49:22;101015.53;;;5.34;87.46
15998;BME280;8103;51.340;12.326;2023-01-27T14:52:38;101012.28;;;5.32;87.71
15998;BME280;8103;51.340;12.326;2023-01-27T15:01:54;101021.00;;;5.20;87.85
15998;BME280;8103;51.340;12.326;2023-01-27T15:04:35;101018.53;;;5.18;88.18
15998;BME280;8103;51.340;12.326;2023-01-27T15:07:38;101019.94;;;5.14;88.01
15998;BME280;8103;51.340;12.326;2023-01-27T15:13:23;101023.22;;;5.16;88.55
15998;BME280;8103;51.340;12.326;2023-01-27T15:16:36;101023.00;;;5.11;88.36
15998;BME280;8103;51.340;12.326;2023-01-27T15:25:23;101027.84;;;5.01;89.96
15998;BME280;8103;51.340;12.326;2023-01-27T15:28:00;101035.81;;;5.01;89.82
15998;BME280;8103;51.340;12.326;2023-01-27T15:30:32;101030.06;;;4.98;89.75
15998;BME280;8103;51.340;12.326;2023-01-27T15:33:00;101042.72;;;4.96;89.66